Time;durP1;ratioP1;P1;durP2;ratioP2;P2;SDS_P1;SDS_P2;PMS_P1;PMS_P2;Temp;Humidity;BMP_temperature;BMP_pressure;BME280_temperature;BME280_humidity;BME280_pressure;Samples;Min_cycle;Max_cycle;Signal;HPM_P1;HPM_P2
2022/10/12 00:01:11;;;;;;;58.40;40.67;;;;;;;15.88;100.00;100021.69;5129739;28;20194;-53
2022/10/12 00:03:39;;;;;;;59.10;39.93;;;;;;;15.96;100.00;100016.97;5129678;28;20190;-53
2022/10/12 00:06:08;;;;;;;57.73;38.97;;;;;;;16.01;100.00;100019.41;5129901;28;20213;-53
2022/10/12 00:08:37;;;;;;;60.07;40.30;;;;;;;15.87;100.00;100012.13;5129720;28;20589;-52
2022/10/12 00:11:06;;;;;;;66.40;41.27;;;;;;;15.85;100.00;100020.03;5129701;28;20228;-53
2022/10/12 00:13:34;;;;;;;59.80;40.47;;;;;;;15.84;100.00;100015.72;5130028;28;20674;-53
2022/10/12 00:16:03;;;;;;;62.87;40.37;;;;;;;15.81;100.00;100017.59;5128670;28;20585;-54
2022/10/12 00:18:30;;;;;;;55.90;40.10;;;;;;;15.80;100.00;100021.16;5131739;27;20206;-53
2022/10/12 00:21:02;;;;;;;56.13;37.60;;;;;;;15.80;100.00;100016.75;5133402;27;20200;-54
2022/10/12 00:23:29;;;;;;;59.93;38.90;;;;;;;15.83;100.00;100021.88;5134022;27;20194;-54
2022/10/12 00:26:00;;;;;;;49.00;35.70;;;;;;;15.84;100.00;100018.34;5133672;27;20687;-60
2022/10/12 00:28:29;;;;;;;44.27;32.13;;;;;;;16.00;100.00;100020.31;5133616;27;20197;-61
2022/10/12 00:30:56;;;;;;;47.07;31.20;;;;;;;15.88;100.00;100016.44;5133635;27;20218;-62
2022/10/12 00:33:23;;;;;;;38.30;30.07;;;;;;;15.86;100.00;100020.91;5133314;27;20200;-62
2022/10/12 00:35:51;;;;;;;41.70;29.00;;;;;;;15.87;100.00;100031.31;5133011;27;20293;-61
2022/10/12 00:38:18;;;;;;;39.17;28.27;;;;;;;15.94;100.00;100024.88;5133562;27;20646;-62
2022/10/12 00:40:46;;;;;;;33.83;24.80;;;;;;;15.96;100.00;100023.06;5132747;27;20270;-60
2022/10/12 00:43:26;;;;;;;41.47;26.13;;;;;;;15.89;100.00;100028.63;5133321;27;20206;-62
2022/10/12 00:45:54;;;;;;;39.83;26.40;;;;;;;16.06;100.00;100022.66;5133116;27;20290;-53
2022/10/12 00:48:22;;;;;;;36.17;24.70;;;;;;;16.19;100.00;100023.84;5132948;27;20581;-62
2022/10/12 00:50:49;;;;;;;31.23;24.33;;;;;;;16.10;100.00;100022.47;5132818;27;20483;-62
2022/10/12 00:53:20;;;;;;;38.57;25.30;;;;;;;15.91;100.00;100019.78;5133245;27;20193;-62
2022/10/12 00:55:51;;;;;;;35.93;25.07;;;;;;;15.80;100.00;100027.22;5132971;27;20204;-62
2022/10/12 00:58:18;;;;;;;34.73;25.93;;;;;;;15.80;100.00;100024.59;5133239;27;20200;-61
2022/10/12 01:00:46;;;;;;;32.63;23.83;;;;;;;15.87;100.00;100028.69;5132609;27;20194;-61
2022/10/12 01:03:17;;;;;;;30.73;23.57;;;;;;;15.86;100.00;100020.91;5132700;27;20208;-53
2022/10/12 01:05:44;;;;;;;31.07;22.03;;;;;;;15.91;100.00;100026.81;5132682;27;20202;-53
2022/10/12 01:08:11;;;;;;;24.80;20.40;;;;;;;15.90;100.00;100023.34;5132702;27;20211;-53
2022/10/12 01:10:38;;;;;;;26.33;20.97;;;;;;;15.83;100.00;100006.16;5132579;27;20205;-53
2022/10/12 01:13:06;;;;;;;29.57;20.73;;;;;;;15.86;100.00;100023.50;5132675;27;20200;-53
2022/10/12 01:15:37;;;;;;;31.30;20.90;;;;;;;15.66;100.00;99998.19;5132470;27;20190;-53
2022/10/12 01:18:10;;;;;;;24.23;19.33;;;;;;;15.82;100.00;100020.16;5132644;27;20601;-54
2022/10/12 01:20:49;;;;;;;19.53;16.80;;;;;;;15.79;100.00;100025.56;5132289;27;20198;-53
2022/10/12 01:23:43;;;;;;;26.63;17.60;;;;;;;15.69;100.00;100018.97;5132150;27;20284;-53
2022/10/12 01:26:35;;;;;;;25.93;17.50;;;;;;;15.78;100.00;100020.38;5132415;27;20286;-53
2022/10/12 01:29:19;;;;;;;19.90;16.90;;;;;;;15.84;100.00;100018.34;5131958;27;20310;-53
2022/10/12 01:31:50;;;;;;;24.67;16.20;;;;;;;15.98;100.00;100018.63;5132452;27;20217;-54
2022/10/12 01:34:23;;;;;;;16.87;13.90;;;;;;;15.90;100.00;100025.94;5131982;27;20560;-53
2022/10/12 01:36:57;;;;;;;16.83;14.27;;;;;;;15.85;100.00;100025.28;5132178;27;20209;-61
2022/10/12 01:39:31;;;;;;;18.63;13.70;;;;;;;15.83;100.00;100027.09;5132090;27;20200;-59
2022/10/12 01:42:03;;;;;;;17.83;13.53;;;;;;;15.76;100.00;100025.69;5131886;27;20194;-62
2022/10/12 01:44:31;;;;;;;17.73;14.57;;;;;;;15.90;100.00;100035.56;5132459;27;20217;-53
2022/10/12 01:47:00;;;;;;;18.70;14.50;;;;;;;15.93;100.00;100033.66;5131970;27;20697;-54
2022/10/12 01:49:30;;;;;;;18.87;14.10;;;;;;;15.87;100.00;100035.69;5131924;27;20285;-62
2022/10/12 01:52:30;;;;;;;19.90;14.30;;;;;;;15.79;100.00;100036.03;5131659;27;20214;-62
2022/10/12 01:55:07;;;;;;;17.83;13.60;;;;;;;15.63;100.00;100031.47;5067943;28;20192;-61
2022/10/12 01:57:47;;;;;;;17.30;13.23;;;;;;;15.62;100.00;100041.09;5121013;27;20194;-62
2022/10/12 02:00:16;;;;;;;19.27;14.07;;;;;;;15.56;100.00;100033.50;5131626;27;20201;-53
2022/10/12 02:02:54;;;;;;;22.00;13.40;;;;;;;15.57;100.00;100032.59;5131332;27;20194;-53
2022/10/12 02:05:32;;;;;;;16.03;13.23;;;;;;;15.69;100.00;100033.84;5131438;27;20625;-54
2022/10/12 02:08:05;;;;;;;16.30;12.73;;;;;;;15.72;100.00;100034.56;5131152;27;20208;-62
2022/10/12 02:10:39;;;;;;;14.87;10.90;;;;;;;15.77;100.00;100037.84;5131387;27;20208;-53
2022/10/12 02:13:09;;;;;;;15.33;9.70;;;;;;;15.72;100.00;100044.19;5131353;27;20226;-53
2022/10/12 02:15:40;;;;;;;12.50;10.33;;;;;;;15.83;100.00;100041.97;5131172;27;20194;-53
2022/10/12 02:18:12;;;;;;;14.07;10.13;;;;;;;15.85;100.00;100034.91;5131192;27;20202;-61
2022/10/12 02:20:41;;;;;;;11.43;10.07;;;;;;;15.86;100.00;100036.59;5131192;27;20200;-62
2022/10/12 02:23:10;;;;;;;11.07;9.57;;;;;;;15.90;100.00;100044.28;5131395;27;20225;-53
2022/10/12 02:25:38;;;;;;;7.77;7.07;;;;;;;15.80;100.00;100037.69;5131139;27;20422;-54
2022/10/12 02:28:09;;;;;;;10.43;8.47;;;;;;;15.77;100.00;100045.69;5130967;27;20198;-53
2022/10/12 02:30:40;;;;;;;10.13;9.13;;;;;;;15.69;100.00;100037.28;5130718;27;20244;-53
2022/10/12 02:33:16;;;;;;;8.33;7.63;;;;;;;15.70;100.00;100035.53;5131129;27;20776;-53
2022/10/12 02:35:51;;;;;;;9.53;8.30;;;;;;;15.65;100.00;100037.50;5131106;27;20721;-53
2022/10/12 02:38:22;;;;;;;10.53;7.60;;;;;;;15.72;100.00;100037.19;5130940;27;20201;-53
2022/10/12 02:40:55;;;;;;;9.73;7.37;;;;;;;15.73;100.00;100041.50;5130128;27;20197;-53
2022/10/12 02:43:27;;;;;;;8.27;7.20;;;;;;;15.48;100.00;100004.97;5130936;27;20194;-53
2022/10/12 02:45:57;;;;;;;7.93;7.17;;;;;;;15.67;100.00;100039.16;5130680;27;20193;-61
2022/10/12 02:48:26;;;;;;;7.57;6.87;;;;;;;15.68;100.00;100033.00;5130878;27;20198;-61
2022/10/12 02:50:56;;;;;;;8.00;7.20;;;;;;;15.65;100.00;100040.13;5130615;27;20281;-61
2022/10/12 02:53:24;;;;;;;7.70;6.93;;;;;;;15.65;100.00;100033.13;5130553;27;20293;-53
2022/10/12 02:55:53;;;;;;;10.67;7.03;;;;;;;15.77;100.00;100043.09;5130413;27;20220;-62
2022/10/12 02:58:20;;;;;;;7.40;6.63;;;;;;;15.65;100.00;100050.59;5130544;27;20251;-54
2022/10/12 03:00:47;;;;;;;6.70;6.07;;;;;;;15.67;100.00;100044.38;5130548;27;20288;-61
2022/10/12 03:03:14;;;;;;;10.33;6.70;;;;;;;15.47;100.00;100039.91;5130647;27;20193;-62
2022/10/12 03:05:43;;;;;;;9.67;6.67;;;;;;;15.52;100.00;100047.59;5130337;27;20193;-61
2022/10/12 03:08:10;;;;;;;7.10;6.43;;;;;;;15.50;100.00;100045.03;5130451;27;20301;-62
2022/10/12 03:10:37;;;;;;;7.03;6.33;;;;;;;15.55;100.00;100048.34;5130584;27;20204;-63
2022/10/12 03:13:04;;;;;;;6.97;6.30;;;;;;;15.61;100.00;100052.47;5130480;27;20723;-62
2022/10/12 03:15:31;;;;;;;10.17;5.97;;;;;;;15.42;100.00;100026.19;5130327;27;20198;-62
2022/10/12 03:17:58;;;;;;;6.53;5.53;;;;;;;15.66;100.00;100053.16;5129845;27;20221;-62
2022/10/12 03:20:25;;;;;;;7.93;7.17;;;;;;;15.63;100.00;100050.66;5129449;27;20204;-61
2022/10/12 03:22:53;;;;;;;7.57;5.80;;;;;;;15.56;100.00;100057.06;5129653;27;20225;-62
2022/10/12 03:25:20;;;;;;;5.67;5.23;;;;;;;15.70;100.00;100052.09;5130217;27;20205;-53
2022/10/12 03:27:47;;;;;;;14.40;6.23;;;;;;;15.72;100.00;100049.41;5130403;27;20190;-54
2022/10/12 03:30:14;;;;;;;6.80;5.67;;;;;;;15.71;100.00;100053.78;5130138;27;20240;-53
2022/10/12 03:32:41;;;;;;;6.47;4.93;;;;;;;15.65;100.00;100047.97;5129955;28;20330;-63
2022/10/12 03:35:09;;;;;;;6.43;5.30;;;;;;;15.55;100.00;100047.50;5130158;28;20245;-53
2022/10/12 03:37:36;;;;;;;8.83;5.53;;;;;;;15.45;100.00;100056.59;5130431;27;20672;-53
2022/10/12 03:40:05;;;;;;;9.37;5.80;;;;;;;15.43;100.00;100053.19;5129980;27;20205;-54
2022/10/12 03:42:32;;;;;;;6.57;5.80;;;;;;;15.40;100.00;100048.91;5130239;28;20658;-53
2022/10/12 03:44:59;;;;;;;9.20;6.77;;;;;;;15.42;100.00;100044.50;5129909;28;20236;-53
2022/10/12 03:47:26;;;;;;;8.33;6.83;;;;;;;15.38;100.00;100044.66;5129737;28;20688;-53
2022/10/12 03:49:53;;;;;;;10.10;6.30;;;;;;;15.34;100.00;100048.34;5129815;28;20220;-62
2022/10/12 03:52:20;;;;;;;5.93;5.53;;;;;;;15.38;100.00;100045.50;5129429;27;20216;-54
2022/10/12 03:54:47;;;;;;;7.07;6.37;;;;;;;15.41;100.00;100053.25;5133857;27;20190;-53
2022/10/12 03:57:15;;;;;;;6.23;5.70;;;;;;;15.40;100.00;100048.91;5134169;27;20202;-53
2022/10/12 03:59:42;;;;;;;6.43;5.93;;;;;;;15.45;100.00;100047.00;5134034;27;20660;-62
2022/10/12 04:02:09;;;;;;;10.47;5.90;;;;;;;15.48;100.00;100046.00;5133621;27;20196;-62
2022/10/12 04:04:36;;;;;;;8.10;5.40;;;;;;;15.42;100.00;100051.47;5134133;27;20733;-62
2022/10/12 04:07:02;;;;;;;8.07;5.97;;;;;;;15.39;100.00;100046.38;5133498;27;20197;-53
2022/10/12 04:09:29;;;;;;;8.33;5.70;;;;;;;15.36;100.00;100051.72;5132549;27;20194;-54
2022/10/12 04:11:56;;;;;;;9.97;5.83;;;;;;;15.36;100.00;100051.72;5132311;27;20213;-53
2022/10/12 04:14:27;;;;;;;6.60;6.10;;;;;;;15.32;100.00;100055.38;5130220;27;20738;-61
2022/10/12 04:16:54;;;;;;;6.80;5.87;;;;;;;15.36;100.00;100056.94;5139745;27;20193;-61
2022/10/12 04:19:22;;;;;;;6.83;6.23;;;;;;;15.23;100.00;100047.00;5132505;27;20205;-63
2022/10/12 04:21:49;;;;;;;9.60;6.13;;;;;;;15.40;100.00;100048.91;5129717;27;20580;-62
2022/10/12 04:24:16;;;;;;;10.00;6.23;;;;;;;15.40;100.00;100055.91;5131658;27;20198;-61
2022/10/12 04:26:42;;;;;;;14.23;6.80;;;;;;;15.43;100.00;100054.03;5132648;27;20276;-58
2022/10/12 04:29:12;;;;;;;7.10;6.40;;;;;;;15.47;100.00;100053.00;5132880;27;20229;-59
2022/10/12 04:31:40;;;;;;;10.60;6.60;;;;;;;15.47;100.00;100054.75;5132465;27;20677;-58
2022/10/12 04:34:07;;;;;;;18.83;8.67;;;;;;;15.53;100.00;100057.13;5132396;27;20193;-57
2022/10/12 04:36:34;;;;;;;11.37;6.60;;;;;;;15.53;100.00;100057.13;5129882;27;20697;-62
2022/10/12 04:39:01;;;;;;;9.50;6.87;;;;;;;15.45;100.00;100056.59;5133038;27;20201;-61
2022/10/12 04:41:28;;;;;;;8.37;7.00;;;;;;;15.53;100.00;100062.38;5112251;28;20195;-62
2022/10/12 04:43:55;;;;;;;12.87;6.67;;;;;;;15.46;100.00;100064.34;5112481;28;20206;-62
2022/10/12 04:46:22;;;;;;;8.53;7.00;;;;;;;15.46;100.00;100063.53;5112385;28;20217;-62
2022/10/12 04:48:51;;;;;;;8.53;6.60;;;;;;;15.42;100.00;100064.56;5112217;28;20205;-62
2022/10/12 04:51:18;;;;;;;10.93;6.80;;;;;;;15.33;100.00;100067.53;5112032;28;20201;-62
2022/10/12 04:53:45;;;;;;;15.10;8.20;;;;;;;15.33;100.00;100072.78;5111761;28;20227;-53
2022/10/12 04:56:12;;;;;;;19.83;10.57;;;;;;;15.35;100.00;100070.97;5118385;27;20669;-53
2022/10/12 04:58:39;;;;;;;18.50;11.53;;;;;;;15.45;100.00;100069.69;5130235;27;20198;-62
2022/10/12 05:01:06;;;;;;;19.13;11.87;;;;;;;15.42;100.00;100075.88;5129977;27;20580;-62
2022/10/12 05:03:33;;;;;;;18.83;13.93;;;;;;;15.44;100.00;100076.69;5132267;27;20190;-54
2022/10/12 05:06:01;;;;;;;29.77;15.50;;;;;;;15.41;100.00;100081.16;5132713;27;20586;-52
2022/10/12 05:08:28;;;;;;;25.40;15.03;;;;;;;15.45;100.00;100082.75;5130965;27;20190;-53
2022/10/12 05:10:57;;;;;;;28.37;18.47;;;;;;;15.41;100.00;100086.41;5130904;27;20302;-53
2022/10/12 05:13:25;;;;;;;26.77;18.83;;;;;;;15.43;100.00;100085.44;5131539;27;20623;-52
2022/10/12 05:15:52;;;;;;;26.73;19.73;;;;;;;15.36;100.00;100075.25;5131081;27;20192;-54
2022/10/12 05:18:19;;;;;;;35.90;21.83;;;;;;;15.45;100.00;100090.63;5131213;27;20201;-54
2022/10/12 05:20:45;;;;;;;33.27;23.90;;;;;;;15.34;100.00;100098.88;5131039;27;20284;-53
2022/10/12 05:23:14;;;;;;;38.27;24.37;;;;;;;15.30;100.00;100096.44;5128238;27;20182;-53
2022/10/12 05:25:41;;;;;;;35.80;25.53;;;;;;;15.36;100.00;100104.03;5131105;27;20197;-53
2022/10/12 05:28:08;;;;;;;30.03;19.83;;;;;;;15.44;100.00;100105.44;5131058;27;20285;-53
2022/10/12 05:30:35;;;;;;;27.03;18.43;;;;;;;15.46;100.00;100094.94;5130931;27;20230;-53
2022/10/12 05:33:02;;;;;;;30.57;18.13;;;;;;;15.50;100.00;100107.81;5131833;27;20218;-53
2022/10/12 05:35:29;;;;;;;23.97;16.20;;;;;;;15.40;100.00;100087.31;5132229;27;20284;-52
2022/10/12 05:37:56;;;;;;;21.30;14.83;;;;;;;15.61;100.00;100103.03;5131524;27;20652;-53
2022/10/12 05:40:24;;;;;;;21.57;15.27;;;;;;;15.57;100.00;100116.31;5132204;27;20190;-53
2022/10/12 05:42:51;;;;;;;22.07;16.03;;;;;;;15.58;100.00;100111.00;5131993;27;20190;-53
2022/10/12 05:45:18;;;;;;;20.07;14.07;;;;;;;15.49;100.00;100111.34;5131401;27;20580;-53
2022/10/12 05:47:45;;;;;;;22.60;15.03;;;;;;;15.43;100.00;100111.59;5131072;27;20289;-52
2022/10/12 05:50:12;;;;;;;30.93;17.03;;;;;;;15.46;100.00;100123.72;5131129;27;20198;-52
2022/10/12 05:52:39;;;;;;;27.37;17.70;;;;;;;15.51;100.00;100122.59;5130724;27;20218;-53
2022/10/12 05:55:07;;;;;;;23.30;15.87;;;;;;;15.53;100.00;100123.41;5128016;27;20233;-53
2022/10/12 05:57:36;;;;;;;24.57;14.40;;;;;;;15.56;100.00;100132.94;5129423;27;20221;-54
2022/10/12 06:00:04;;;;;;;20.70;15.10;;;;;;;15.56;100.00;100132.94;5129837;27;20224;-62
2022/10/12 06:02:31;;;;;;;22.93;13.13;;;;;;;15.60;100.00;100135.34;5130551;27;20218;-61
2022/10/12 06:04:58;;;;;;;28.20;12.83;;;;;;;15.69;100.00;100136.75;5129391;27;20225;-53
2022/10/12 06:07:25;;;;;;;27.73;14.03;;;;;;;15.65;100.00;100137.78;5129502;27;20252;-53
2022/10/12 06:09:52;;;;;;;24.50;16.70;;;;;;;15.66;100.00;100139.50;5129520;27;20221;-53
2022/10/12 06:12:19;;;;;;;19.73;14.23;;;;;;;15.73;100.00;100138.34;5129666;27;20218;-54
2022/10/12 06:14:47;;;;;;;20.67;14.90;;;;;;;15.78;100.00;100146.88;5129939;27;20228;-52
2022/10/12 06:17:14;;;;;;;22.33;13.63;;;;;;;15.80;100.00;100150.25;5129195;27;20724;-54
2022/10/12 06:19:41;;;;;;;20.00;13.83;;;;;;;15.79;100.00;100137.25;5130891;27;20232;-53
2022/10/12 06:22:08;;;;;;;24.77;12.80;;;;;;;15.87;100.00;100154.34;5130413;27;20695;-53
2022/10/12 06:24:36;;;;;;;20.37;11.90;;;;;;;15.92;100.00;100157.63;5130219;27;20204;-53
2022/10/12 06:27:03;;;;;;;19.93;12.00;;;;;;;15.94;100.00;100140.09;5130290;27;20190;-53
2022/10/12 06:29:30;;;;;;;20.13;12.77;;;;;;;16.09;100.00;100161.31;5131032;27;20229;-53
2022/10/12 06:31:58;;;;;;;18.47;11.87;;;;;;;16.11;100.00;100165.59;5131435;27;20383;-53
2022/10/12 06:34:25;;;;;;;30.83;16.07;;;;;;;16.13;100.00;100170.78;5131601;27;20224;-54
2022/10/12 06:36:52;;;;;;;19.93;11.50;;;;;;;16.14;100.00;100175.91;5131048;27;20198;-53
2022/10/12 06:39:20;;;;;;;15.03;11.27;;;;;;;16.19;100.00;100175.75;5131533;27;20552;-61
2022/10/12 06:41:47;;;;;;;13.03;10.67;;;;;;;16.20;100.00;100173.06;5131336;27;20205;-62
2022/10/12 06:44:14;;;;;;;27.97;12.33;;;;;;;16.18;100.00;100184.50;5131682;27;20197;-61
2022/10/12 06:46:41;;;;;;;12.63;10.97;;;;;;;16.14;100.00;100180.34;5131271;27;20202;-61
2022/10/12 06:49:10;;;;;;;16.27;10.37;;;;;;;16.20;100.00;100182.69;5130648;27;20200;-61
2022/10/12 06:51:37;;;;;;;17.83;10.80;;;;;;;16.21;100.00;100185.25;5130221;27;20284;-53
2022/10/12 06:54:04;;;;;;;20.50;10.60;;;;;;;16.20;100.00;100172.22;5129958;27;20647;-62
2022/10/12 06:56:31;;;;;;;16.50;9.60;;;;;;;16.31;100.00;100188.34;5130157;27;20225;-62
2022/10/12 06:58:58;;;;;;;12.07;9.53;;;;;;;16.40;100.00;100190.56;5130080;27;20202;-62
2022/10/12 07:01:25;;;;;;;16.90;11.03;;;;;;;16.42;100.00;100188.75;5130111;27;20282;-53
2022/10/12 07:03:52;;;;;;;16.30;10.90;;;;;;;16.41;100.00;100192.28;5130405;27;20303;-62
2022/10/12 07:06:20;;;;;;;14.30;10.80;;;;;;;16.39;100.00;100178.38;5130061;27;20194;-62
2022/10/12 07:08:47;;;;;;;13.77;9.27;;;;;;;16.53;100.00;100186.53;5130173;27;20204;-61
2022/10/12 07:11:15;;;;;;;15.10;9.83;;;;;;;16.54;100.00;100185.59;5129927;27;20202;-53
2022/10/12 07:13:42;;;;;;;12.00;8.63;;;;;;;16.57;100.00;100190.72;5129825;27;20709;-53
2022/10/12 07:16:08;;;;;;;13.87;9.43;;;;;;;16.63;100.00;100193.09;5129791;27;20194;-53
2022/10/12 07:18:35;;;;;;;8.87;8.07;;;;;;;16.65;100.00;100186.03;5130979;27;20661;-53
2022/10/12 07:21:02;;;;;;;13.33;7.50;;;;;;;16.72;100.00;100194.47;5130048;27;20194;-53
2022/10/12 07:23:33;;;;;;;11.00;6.10;;;;;;;16.83;100.00;100189.63;5129825;27;20196;-53
2022/10/12 07:26:00;;;;;;;6.77;5.67;;;;;;;16.80;100.00;100194.16;5129810;27;20221;-53
2022/10/12 07:28:27;;;;;;;7.70;5.93;;;;;;;16.85;100.00;100200.03;5126772;27;20212;-54
2022/10/12 07:30:54;;;;;;;9.47;5.77;;;;;;;16.92;99.92;100196.25;5129739;27;20190;-54
2022/10/12 07:33:22;;;;;;;8.60;5.37;;;;;;;16.95;98.63;100188.22;5129689;28;20220;-53
2022/10/12 07:35:55;;;;;;;5.70;4.77;;;;;;;17.08;98.08;100199.88;5129580;28;20269;-53
2022/10/12 07:38:22;;;;;;;7.27;5.10;;;;;;;17.20;96.52;100194.09;5130172;28;20188;-54
2022/10/12 07:40:50;;;;;;;6.83;4.43;;;;;;;17.22;96.12;100197.50;5130867;28;20232;-53
2022/10/12 07:43:17;;;;;;;5.77;5.23;;;;;;;17.29;96.08;100198.06;5131134;28;20233;-54
2022/10/12 07:45:45;;;;;;;5.87;4.60;;;;;;;17.36;95.66;100195.09;5130740;28;20190;-54
2022/10/12 07:48:12;;;;;;;5.73;5.23;;;;;;;17.53;95.62;100194.31;5130675;28;20196;-53
2022/10/12 07:50:39;;;;;;;11.67;5.67;;;;;;;17.69;96.16;100197.97;5130314;28;20200;-54
2022/10/12 07:53:06;;;;;;;5.73;5.30;;;;;;;17.81;94.30;100193.91;5129625;28;20316;-54
2022/10/12 07:55:33;;;;;;;9.60;5.87;;;;;;;17.80;93.03;100184.34;5129760;28;20220;-62
2022/10/12 07:58:01;;;;;;;5.53;5.07;;;;;;;17.85;92.64;100189.34;5130541;28;20277;-62
2022/10/12 08:00:30;;;;;;;5.70;5.30;;;;;;;17.98;92.26;100193.94;5130023;28;20272;-63
2022/10/12 08:02:57;;;;;;;6.13;4.78;;;;;;;18.07;91.84;100188.22;5130681;28;20194;-63
2022/10/12 08:05:24;;;;;;;6.72;4.93;;;;;;;18.25;91.25;100193.53;5130224;28;20194;-62
2022/10/12 08:07:52;;;;;;;5.72;5.05;;;;;;;18.37;90.46;100195.53;5129228;28;20274;-62
2022/10/12 08:10:19;;;;;;;4.60;4.13;;;;;;;18.50;89.00;100194.88;5129473;28;20256;-62
2022/10/12 08:12:46;;;;;;;5.15;4.38;;;;;;;18.45;88.96;100167.09;5130593;28;20554;-63
2022/10/12 08:15:15;;;;;;;4.38;3.42;;;;;;;18.59;87.52;100188.31;5130829;28;20584;-62
2022/10/12 08:17:42;;;;;;;8.57;3.85;;;;;;;18.70;87.47;100193.88;5130765;28;20202;-63
2022/10/12 08:20:10;;;;;;;7.43;3.85;;;;;;;18.70;86.98;100174.63;5130128;28;20206;-63
2022/10/12 08:22:37;;;;;;;3.80;3.50;;;;;;;18.82;86.18;100195.88;5130462;28;20207;-53
2022/10/12 08:25:04;;;;;;;4.40;3.88;;;;;;;18.89;85.96;100199.03;5130543;28;20190;-53
2022/10/12 08:27:31;;;;;;;8.32;4.28;;;;;;;19.20;85.52;100203.50;5130352;28;20194;-53
2022/10/12 08:29:58;;;;;;;4.55;4.07;;;;;;;19.43;83.98;100200.50;5129641;28;20229;-53
2022/10/12 08:32:26;;;;;;;8.82;3.63;;;;;;;19.67;82.70;100192.22;5130002;28;20201;-53
2022/10/12 08:34:53;;;;;;;3.55;3.35;;;;;;;19.81;81.86;100198.44;5109347;28;20218;-54
2022/10/12 08:37:20;;;;;;;4.20;3.03;;;;;;;19.87;80.99;100205.97;5121937;28;20724;-54
2022/10/12 08:39:47;;;;;;;6.35;3.00;;;;;;;19.82;81.02;100199.28;5131363;27;20608;-53
2022/10/12 08:42:28;;;;;;;4.50;3.45;;;;;;;19.77;81.49;100203.94;5133685;27;20190;-53
2022/10/12 08:45:11;;;;;;;4.22;3.65;;;;;;;19.78;81.65;100203.84;5134053;27;20205;-54
2022/10/12 08:47:43;;;;;;;4.38;4.00;;;;;;;19.69;80.80;100188.56;5133243;27;20276;-53
2022/10/12 08:50:18;;;;;;;6.95;4.35;;;;;;;19.49;82.78;100196.72;5133428;27;20281;-54
2022/10/12 08:52:52;;;;;;;12.98;4.90;;;;;;;19.54;82.39;100208.69;5133849;27;20289;-53
2022/10/12 08:55:28;;;;;;;5.22;4.20;;;;;;;19.35;82.24;100181.63;5133764;27;20197;-53
2022/10/12 08:57:56;;;;;;;7.75;4.35;;;;;;;19.58;82.22;100197.06;5133251;27;20284;-53
2022/10/12 09:00:23;;;;;;;22.55;6.53;;;;;;;19.43;82.67;100197.00;5133633;27;20186;-53
2022/10/12 09:03:07;;;;;;;16.90;4.70;;;;;;;19.55;82.92;100197.22;5132832;27;20202;-53
2022/10/12 09:05:40;;;;;;;5.70;5.20;;;;;;;19.80;80.96;100183.56;5133251;27;20721;-54
2022/10/12 09:08:14;;;;;;;8.27;4.40;;;;;;;19.95;80.95;100197.66;5133313;27;20204;-52
2022/10/12 09:10:47;;;;;;;8.13;4.38;;;;;;;20.21;78.94;100199.63;5133307;27;20581;-54
2022/10/12 09:13:30;;;;;;;7.57;4.00;;;;;;;20.21;78.11;100204.91;5133505;27;20197;-54
2022/10/12 09:16:00;;;;;;;5.88;3.70;;;;;;;19.99;79.10;100199.16;5132948;27;20577;-54
2022/10/12 09:18:36;;;;;;;4.43;3.50;;;;;;;20.01;77.58;100199.94;5133043;27;20276;-54
2022/10/12 09:21:06;;;;;;;4.70;4.40;;;;;;;19.82;79.61;100201.91;5132679;27;20196;-54
2022/10/12 09:23:38;;;;;;;3.67;3.45;;;;;;;19.79;80.20;100208.19;5132943;27;20182;-55
2022/10/12 09:26:14;;;;;;;6.82;3.53;;;;;;;19.87;79.48;100200.69;5133151;27;20201;-62
2022/10/12 09:28:44;;;;;;;4.40;4.10;;;;;;;20.09;79.13;100207.41;5133371;27;20666;-62
2022/10/12 09:31:26;;;;;;;6.72;3.85;;;;;;;20.03;78.59;100182.25;5133126;27;20198;-63
2022/10/12 09:33:56;;;;;;;10.38;4.35;;;;;;;20.34;77.46;100205.06;5133069;27;20225;-64
2022/10/12 09:36:26;;;;;;;4.40;3.72;;;;;;;20.55;76.81;100197.69;5133243;27;20725;-62
2022/10/12 09:38:53;;;;;;;7.05;4.03;;;;;;;20.64;76.58;100205.94;5132979;27;20205;-63
2022/10/12 09:41:24;;;;;;;9.60;5.00;;;;;;;20.65;76.40;100199.69;5132989;27;20235;-63
2022/10/12 09:43:55;;;;;;;6.95;4.00;;;;;;;20.56;76.08;100202.03;5132617;27;20200;-63
2022/10/12 09:46:30;;;;;;;8.02;4.35;;;;;;;20.42;75.90;100199.38;5133160;27;20186;-63
2022/10/12 09:49:00;;;;;;;7.78;3.72;;;;;;;20.26;76.80;100202.88;5132740;27;20201;-62
2022/10/12 09:51:29;;;;;;;7.68;4.03;;;;;;;20.24;76.52;100195.97;5132720;27;20742;-63
2022/10/12 09:54:02;;;;;;;7.72;4.10;;;;;;;20.12;76.19;100194.91;5132562;27;20229;-62
2022/10/12 09:56:35;;;;;;;7.25;4.43;;;;;;;19.97;76.42;100179.97;5131568;27;20190;-62
2022/10/12 09:59:05;;;;;;;8.05;3.97;;;;;;;20.15;76.42;100186.81;5132326;27;20280;-62
2022/10/12 10:01:34;;;;;;;21.65;5.63;;;;;;;20.50;75.30;100192.72;5132136;27;20194;-62
2022/10/12 10:04:13;;;;;;;4.95;4.03;;;;;;;20.65;73.57;100181.22;5132014;27;20200;-62
2022/10/12 10:06:42;;;;;;;43.70;8.13;;;;;;;20.81;72.48;100182.97;5131655;27;20247;-62
2022/10/12 10:09:27;;;;;;;19.33;5.60;;;;;;;20.87;72.17;100178.19;5131060;27;20198;-62
2022/10/12 10:11:55;;;;;;;5.40;3.83;;;;;;;20.96;71.64;100177.63;5128958;27;20195;-62
2022/10/12 10:14:22;;;;;;;12.30;4.15;;;;;;;20.93;71.76;100156.69;5131024;27;20599;-62
2022/10/12 10:16:50;;;;;;;5.82;3.53;;;;;;;21.18;70.87;100177.19;5130899;27;20277;-62
2022/10/12 10:19:23;;;;;;;6.40;3.65;;;;;;;21.15;71.03;100172.03;5130855;27;20198;-54
2022/10/12 10:21:51;;;;;;;5.95;3.80;;;;;;;21.04;71.51;100174.50;5130864;27;20289;-62
2022/10/12 10:24:28;;;;;;;3.70;3.42;;;;;;;21.06;70.97;100162.06;5130544;27;20192;-63
2022/10/12 10:26:57;;;;;;;4.85;3.50;;;;;;;21.09;71.23;100169.78;5128738;27;20681;-62
2022/10/12 10:29:34;;;;;;;5.20;4.03;;;;;;;21.06;71.28;100164.69;5130411;27;20236;-53
2022/10/12 10:32:22;;;;;;;7.53;5.20;;;;;;;21.27;71.57;100155.47;5129605;27;20649;-53
2022/10/12 10:35:01;;;;;;;7.38;3.88;;;;;;;21.06;68.95;100159.41;5129199;27;20237;-53
2022/10/12 10:37:29;;;;;;;7.93;3.95;;;;;;;21.20;69.67;100142.75;5129066;27;20197;-53
2022/10/12 10:39:58;;;;;;;5.75;4.07;;;;;;;21.16;69.91;100146.50;5130316;27;20296;-53
2022/10/12 10:42:27;;;;;;;7.57;4.32;;;;;;;21.25;70.48;100144.16;5130504;27;20298;-53
2022/10/12 10:44:59;;;;;;;39.72;6.97;;;;;;;21.14;70.41;100143.09;5130766;27;20192;-53
2022/10/12 10:47:27;;;;;;;15.02;4.30;;;;;;;21.26;70.09;100129.16;5128491;27;20202;-53
2022/10/12 10:49:59;;;;;;;4.85;3.50;;;;;;;21.47;67.82;100135.72;5130367;27;20195;-55
2022/10/12 10:52:29;;;;;;;6.50;3.50;;;;;;;21.47;68.31;100138.34;5130357;27;20194;-53
2022/10/12 10:55:19;;;;;;;3.67;3.40;;;;;;;21.40;68.29;100137.06;5130017;27;20328;-53
2022/10/12 10:57:50;;;;;;;11.10;4.03;;;;;;;21.30;68.93;100134.16;5128357;27;20578;-53
2022/10/12 11:00:21;;;;;;;6.15;4.13;;;;;;;21.23;69.81;100134.63;5131055;27;20204;-53
2022/10/12 11:02:52;;;;;;;4.65;4.25;;;;;;;21.13;69.64;100122.91;5130873;27;20194;-53
2022/10/12 11:05:24;;;;;;;7.43;4.10;;;;;;;21.15;69.81;100123.69;5124282;27;20725;-61
2022/10/12 11:07:54;;;;;;;5.15;4.18;;;;;;;21.25;69.44;100124.81;5110611;28;20644;-62
2022/10/12 11:10:27;;;;;;;10.43;4.93;;;;;;;21.22;69.38;100125.03;5110477;28;20205;-62
2022/10/12 11:13:01;;;;;;;4.43;3.90;;;;;;;21.23;68.64;100116.16;5110586;28;20198;-53
2022/10/12 11:15:34;;;;;;;4.43;3.83;;;;;;;21.48;68.74;100113.66;5110607;28;20724;-53
2022/10/12 11:18:09;;;;;;;7.95;4.30;;;;;;;21.45;68.50;100111.19;5110375;28;20209;-53
2022/10/12 11:20:46;;;;;;;7.63;3.88;;;;;;;21.33;68.66;100109.38;5110979;28;20623;-54
2022/10/12 11:23:27;;;;;;;5.20;4.18;;;;;;;21.22;69.24;100107.38;5109975;28;20195;-54